sensor_id;sensor_type;location;lat;lon;timestamp;P1;durP1;ratioP1;P2;durP2;ratioP2
50350;SDS011;36250;48.740;22.174;2023-06-26T00:00:23;9.85;;;6.82;;
50350;SDS011;36250;48.740;22.174;2023-06-26T00:02:48;8.82;;;6.90;;
50350;SDS011;36250;48.740;22.174;2023-06-26T00:05:13;9.07;;;7.18;;
50350;SDS011;36250;48.740;22.174;2023-06-26T00:07:39;10.25;;;6.22;;
50350;SDS011;36250;48.740;22.174;2023-06-26T00:10:04;9.27;;;7.60;;
50350;SDS011;36250;48.740;22.174;2023-06-26T00:12:30;7.88;;;6.70;;
50350;SDS011;36250;48.740;22.174;2023-06-26T00:14:56;6.70;;;6.00;;
50350;SDS011;36250;48.740;22.174;2023-06-26T00:17:22;6.88;;;6.22;;
50350;SDS011;36250;48.740;22.174;2023-06-26T00:19:48;9.65;;;6.50;;
50350;SDS011;36250;48.740;22.174;2023-06-26T00:22:14;11.13;;;6.57;;
50350;SDS011;36250;48.740;22.174;2023-06-26T00:24:39;8.65;;;6.72;;
50350;SDS011;36250;48.740;22.174;2023-06-26T00:27:05;7.93;;;5.93;;
50350;SDS011;36250;48.740;22.174;2023-06-26T00:29:31;10.25;;;6.78;;
50350;SDS011;36250;48.740;22.174;2023-06-26T00:31:56;8.02;;;5.95;;
50350;SDS011;36250;48.740;22.174;2023-06-26T00:34:21;8.02;;;7.20;;
50350;SDS011;36250;48.740;22.174;2023-06-26T00:36:47;7.35;;;6.57;;
50350;SDS011;36250;48.740;22.174;2023-06-26T00:39:12;10.23;;;6.35;;
50350;SDS011;36250;48.740;22.174;2023-06-26T00:41:38;9.13;;;6.80;;
50350;SDS011;36250;48.740;22.174;2023-06-26T00:44:04;7.30;;;6.13;;
50350;SDS011;36250;48.740;22.174;2023-06-26T00:46:30;8.65;;;5.70;;
50350;SDS011;36250;48.740;22.174;2023-06-26T00:48:56;6.85;;;6.13;;
50350;SDS011;36250;48.740;22.174;2023-06-26T00:51:24;7.40;;;5.97;;
50350;SDS011;36250;48.740;22.174;2023-06-26T00:53:49;9.30;;;6.35;;
50350;SDS011;36250;48.740;22.174;2023-06-26T00:56:15;6.85;;;6.25;;
50350;SDS011;36250;48.740;22.174;2023-06-26T00:58:43;8.32;;;6.25;;
50350;SDS011;36250;48.740;22.174;2023-06-26T01:01:09;9.38;;;6.32;;
50350;SDS011;36250;48.740;22.174;2023-06-26T01:03:40;8.63;;;6.10;;
50350;SDS011;36250;48.740;22.174;2023-06-26T01:06:07;9.88;;;6.75;;
50350;SDS011;36250;48.740;22.174;2023-06-26T01:08:36;11.20;;;6.78;;
50350;SDS011;36250;48.740;22.174;2023-06-26T01:11:02;7.43;;;6.50;;
50350;SDS011;36250;48.740;22.174;2023-06-26T01:13:28;11.30;;;6.97;;
50350;SDS011;36250;48.740;22.174;2023-06-26T01:15:55;7.53;;;6.65;;
50350;SDS011;36250;48.740;22.174;2023-06-26T01:18:22;8.13;;;7.22;;
50350;SDS011;36250;48.740;22.174;2023-06-26T01:20:48;6.50;;;5.88;;
50350;SDS011;36250;48.740;22.174;2023-06-26T01:23:26;11.75;;;6.60;;
50350;SDS011;36250;48.740;22.174;2023-06-26T01:28:52;9.40;;;6.57;;
50350;SDS011;36250;48.740;22.174;2023-06-26T01:31:19;11.15;;;7.35;;
50350;SDS011;36250;48.740;22.174;2023-06-26T01:33:45;10.32;;;6.30;;
50350;SDS011;36250;48.740;22.174;2023-06-26T01:36:11;8.77;;;6.95;;
50350;SDS011;36250;48.740;22.174;2023-06-26T01:38:37;12.55;;;6.65;;
50350;SDS011;36250;48.740;22.174;2023-06-26T01:41:03;7.70;;;6.72;;
50350;SDS011;36250;48.740;22.174;2023-06-26T01:52:24;11.43;;;6.80;;
50350;SDS011;36250;48.740;22.174;2023-06-26T01:54:58;10.70;;;7.53;;
50350;SDS011;36250;48.740;22.174;2023-06-26T01:57:26;9.48;;;7.20;;
50350;SDS011;36250;48.740;22.174;2023-06-26T01:59:53;9.02;;;7.28;;
50350;SDS011;36250;48.740;22.174;2023-06-26T02:02:20;12.20;;;6.97;;
50350;SDS011;36250;48.740;22.174;2023-06-26T02:04:45;7.28;;;6.57;;
50350;SDS011;36250;48.740;22.174;2023-06-26T02:07:13;10.45;;;8.05;;
50350;SDS011;36250;48.740;22.174;2023-06-26T02:09:38;8.40;;;7.50;;
50350;SDS011;36250;48.740;22.174;2023-06-26T02:12:04;9.10;;;7.55;;
50350;SDS011;36250;48.740;22.174;2023-06-26T02:14:29;9.43;;;7.25;;
50350;SDS011;36250;48.740;22.174;2023-06-26T02:16:55;11.75;;;7.05;;
50350;SDS011;36250;48.740;22.174;2023-06-26T02:19:20;11.68;;;8.52;;
50350;SDS011;36250;48.740;22.174;2023-06-26T02:21:49;10.55;;;8.13;;
50350;SDS011;36250;48.740;22.174;2023-06-26T02:24:14;11.60;;;8.80;;
50350;SDS011;36250;48.740;22.174;2023-06-26T02:26:40;10.75;;;8.13;;
50350;SDS011;36250;48.740;22.174;2023-06-26T02:29:05;10.65;;;7.68;;
50350;SDS011;36250;48.740;22.174;2023-06-26T02:31:31;9.32;;;7.35;;
50350;SDS011;36250;48.740;22.174;2023-06-26T02:33:56;12.07;;;7.45;;
50350;SDS011;36250;48.740;22.174;2023-06-26T02:36:21;10.45;;;7.75;;
50350;SDS011;36250;48.740;22.174;2023-06-26T02:38:47;13.65;;;7.40;;
50350;SDS011;36250;48.740;22.174;2023-06-26T02:41:12;9.35;;;6.50;;
50350;SDS011;36250;48.740;22.174;2023-06-26T02:43:37;7.32;;;6.63;;
50350;SDS011;36250;48.740;22.174;2023-06-26T02:46:03;11.10;;;7.80;;
50350;SDS011;36250;48.740;22.174;2023-06-26T02:48:28;6.80;;;6.20;;
50350;SDS011;36250;48.740;22.174;2023-06-26T02:50:53;10.63;;;6.90;;
50350;SDS011;36250;48.740;22.174;2023-06-26T02:53:18;12.20;;;7.05;;
50350;SDS011;36250;48.740;22.174;2023-06-26T02:55:44;15.50;;;7.70;;
50350;SDS011;36250;48.740;22.174;2023-06-26T02:58:09;14.85;;;7.47;;
50350;SDS011;36250;48.740;22.174;2023-06-26T03:00:34;9.70;;;6.95;;
50350;SDS011;36250;48.740;22.174;2023-06-26T03:03:00;9.45;;;7.20;;
50350;SDS011;36250;48.740;22.174;2023-06-26T03:05:25;12.55;;;8.63;;
50350;SDS011;36250;48.740;22.174;2023-06-26T03:07:51;7.72;;;6.93;;
50350;SDS011;36250;48.740;22.174;2023-06-26T03:10:16;8.20;;;7.38;;
50350;SDS011;36250;48.740;22.174;2023-06-26T03:12:41;9.32;;;7.32;;
50350;SDS011;36250;48.740;22.174;2023-06-26T03:15:07;9.95;;;7.10;;
50350;SDS011;36250;48.740;22.174;2023-06-26T03:17:33;10.65;;;7.25;;
50350;SDS011;36250;48.740;22.174;2023-06-26T03:19:58;7.72;;;6.93;;
50350;SDS011;36250;48.740;22.174;2023-06-26T03:22:23;13.82;;;7.05;;
50350;SDS011;36250;48.740;22.174;2023-06-26T03:24:49;10.07;;;6.80;;
50350;SDS011;36250;48.740;22.174;2023-06-26T03:27:14;8.02;;;6.28;;
50350;SDS011;36250;48.740;22.174;2023-06-26T03:29:39;9.77;;;7.18;;
50350;SDS011;36250;48.740;22.174;2023-06-26T03:32:05;11.77;;;7.07;;
50350;SDS011;36250;48.740;22.174;2023-06-26T03:34:30;7.82;;;7.13;;
50350;SDS011;36250;48.740;22.174;2023-06-26T03:36:56;10.05;;;6.90;;
50350;SDS011;36250;48.740;22.174;2023-06-26T03:39:21;9.48;;;5.85;;
50350;SDS011;36250;48.740;22.174;2023-06-26T03:41:47;12.10;;;7.13;;
50350;SDS011;36250;48.740;22.174;2023-06-26T03:44:12;8.93;;;7.05;;
50350;SDS011;36250;48.740;22.174;2023-06-26T03:46:37;9.00;;;7.13;;
50350;SDS011;36250;48.740;22.174;2023-06-26T03:49:03;8.88;;;7.13;;
50350;SDS011;36250;48.740;22.174;2023-06-26T03:51:28;11.82;;;7.57;;
50350;SDS011;36250;48.740;22.174;2023-06-26T03:53:54;7.97;;;6.47;;
50350;SDS011;36250;48.740;22.174;2023-06-26T03:56:19;18.02;;;7.57;;
50350;SDS011;36250;48.740;22.174;2023-06-26T03:58:44;8.52;;;6.38;;
50350;SDS011;36250;48.740;22.174;2023-06-26T04:01:10;11.52;;;7.43;;
50350;SDS011;36250;48.740;22.174;2023-06-26T04:03:35;8.05;;;6.70;;
50350;SDS011;36250;48.740;22.174;2023-06-26T04:06:00;10.23;;;6.80;;
50350;SDS011;36250;48.740;22.174;2023-06-26T04:08:25;8.38;;;6.30;;
50350;SDS011;36250;48.740;22.174;2023-06-26T04:10:51;9.57;;;7.35;;
50350;SDS011;36250;48.740;22.174;2023-06-26T04:13:17;7.95;;;7.18;;
50350;SDS011;36250;48.740;22.174;2023-06-26T04:15:42;8.35;;;7.38;;
50350;SDS011;36250;48.740;22.174;2023-06-26T04:18:08;11.93;;;6.82;;
50350;SDS011;36250;48.740;22.174;2023-06-26T04:20:37;7.18;;;6.47;;
50350;SDS011;36250;48.740;22.174;2023-06-26T04:23:04;7.53;;;6.82;;
50350;SDS011;36250;48.740;22.174;2023-06-26T04:25:29;9.10;;;7.10;;
50350;SDS011;36250;48.740;22.174;2023-06-26T04:27:55;10.02;;;7.68;;
50350;SDS011;36250;48.740;22.174;2023-06-26T04:30:20;11.50;;;7.80;;
50350;SDS011;36250;48.740;22.174;2023-06-26T04:32:45;9.95;;;7.93;;
50350;SDS011;36250;48.740;22.174;2023-06-26T04:35:11;11.60;;;7.65;;
50350;SDS011;36250;48.740;22.174;2023-06-26T04:37:36;7.53;;;6.78;;
50350;SDS011;36250;48.740;22.174;2023-06-26T04:40:01;13.93;;;7.82;;
50350;SDS011;36250;48.740;22.174;2023-06-26T04:42:29;9.90;;;7.07;;
50350;SDS011;36250;48.740;22.174;2023-06-26T04:44:54;11.40;;;8.18;;
50350;SDS011;36250;48.740;22.174;2023-06-26T04:47:19;11.80;;;7.57;;
50350;SDS011;36250;48.740;22.174;2023-06-26T04:49:45;11.77;;;8.13;;
50350;SDS011;36250;48.740;22.174;2023-06-26T04:52:13;13.23;;;7.88;;
50350;SDS011;36250;48.740;22.174;2023-06-26T04:54:39;8.82;;;7.18;;
50350;SDS011;36250;48.740;22.174;2023-06-26T04:57:04;8.00;;;7.20;;
50350;SDS011;36250;48.740;22.174;2023-06-26T04:59:30;9.45;;;7.43;;
50350;SDS011;36250;48.740;22.174;2023-06-26T05:01:56;8.82;;;7.53;;
50350;SDS011;36250;48.740;22.174;2023-06-26T05:04:22;9.70;;;7.43;;
50350;SDS011;36250;48.740;22.174;2023-06-26T05:06:48;14.73;;;7.25;;
50350;SDS011;36250;48.740;22.174;2023-06-26T05:09:13;8.50;;;6.75;;
50350;SDS011;36250;48.740;22.174;2023-06-26T05:11:39;8.02;;;7.22;;
50350;SDS011;36250;48.740;22.174;2023-06-26T05:14:04;12.38;;;6.88;;
50350;SDS011;36250;48.740;22.174;2023-06-26T05:16:32;8.65;;;6.82;;
50350;SDS011;36250;48.740;22.174;2023-06-26T05:18:59;6.85;;;6.10;;
50350;SDS011;36250;48.740;22.174;2023-06-26T05:21:24;7.65;;;6.47;;
50350;SDS011;36250;48.740;22.174;2023-06-26T05:23:50;7.60;;;6.82;;
50350;SDS011;36250;48.740;22.174;2023-06-26T05:26:20;8.63;;;7.15;;
50350;SDS011;36250;48.740;22.174;2023-06-26T05:28:46;8.82;;;6.63;;
50350;SDS011;36250;48.740;22.174;2023-06-26T05:31:13;8.38;;;6.85;;
50350;SDS011;36250;48.740;22.174;2023-06-26T05:33:40;10.05;;;7.15;;
50350;SDS011;36250;48.740;22.174;2023-06-26T05:36:09;12.20;;;6.55;;
50350;SDS011;36250;48.740;22.174;2023-06-26T05:38:34;9.00;;;7.00;;
50350;SDS011;36250;48.740;22.174;2023-06-26T05:41:00;10.15;;;5.63;;
50350;SDS011;36250;48.740;22.174;2023-06-26T05:43:26;7.25;;;5.90;;
50350;SDS011;36250;48.740;22.174;2023-06-26T05:45:51;6.63;;;5.95;;
50350;SDS011;36250;48.740;22.174;2023-06-26T05:48:16;8.75;;;6.20;;
50350;SDS011;36250;48.740;22.174;2023-06-26T05:50:42;7.80;;;6.18;;
50350;SDS011;36250;48.740;22.174;2023-06-26T05:53:08;6.90;;;5.30;;
50350;SDS011;36250;48.740;22.174;2023-06-26T05:55:34;7.47;;;6.20;;
50350;SDS011;36250;48.740;22.174;2023-06-26T05:58:01;8.25;;;6.38;;
50350;SDS011;36250;48.740;22.174;2023-06-26T06:00:27;7.20;;;6.32;;
50350;SDS011;36250;48.740;22.174;2023-06-26T06:02:53;7.18;;;5.35;;
50350;SDS011;36250;48.740;22.174;2023-06-26T06:05:19;8.02;;;6.13;;
50350;SDS011;36250;48.740;22.174;2023-06-26T06:07:46;6.97;;;6.35;;
50350;SDS011;36250;48.740;22.174;2023-06-26T06:10:12;9.68;;;6.55;;
50350;SDS011;36250;48.740;22.174;2023-06-26T06:12:37;7.20;;;6.15;;
50350;SDS011;36250;48.740;22.174;2023-06-26T06:15:02;6.20;;;5.70;;
50350;SDS011;36250;48.740;22.174;2023-06-26T06:17:28;10.32;;;6.55;;
50350;SDS011;36250;48.740;22.174;2023-06-26T06:19:53;9.18;;;6.82;;
50350;SDS011;36250;48.740;22.174;2023-06-26T06:22:18;10.55;;;6.35;;
50350;SDS011;36250;48.740;22.174;2023-06-26T06:24:44;6.93;;;6.13;;
50350;SDS011;36250;48.740;22.174;2023-06-26T06:27:09;10.85;;;6.40;;
50350;SDS011;36250;48.740;22.174;2023-06-26T06:29:35;7.18;;;5.47;;
50350;SDS011;36250;48.740;22.174;2023-06-26T06:32:00;8.43;;;6.32;;
50350;SDS011;36250;48.740;22.174;2023-06-26T06:34:25;8.05;;;6.40;;
50350;SDS011;36250;48.740;22.174;2023-06-26T06:36:51;6.80;;;5.50;;
50350;SDS011;36250;48.740;22.174;2023-06-26T06:39:16;6.82;;;6.13;;
50350;SDS011;36250;48.740;22.174;2023-06-26T06:41:42;8.00;;;6.15;;
50350;SDS011;36250;48.740;22.174;2023-06-26T06:44:07;7.25;;;6.47;;
50350;SDS011;36250;48.740;22.174;2023-06-26T06:46:32;7.22;;;5.78;;
50350;SDS011;36250;48.740;22.174;2023-06-26T06:48:58;7.57;;;6.32;;
50350;SDS011;36250;48.740;22.174;2023-06-26T06:51:23;6.63;;;5.60;;
50350;SDS011;36250;48.740;22.174;2023-06-26T06:53:49;8.02;;;6.10;;
50350;SDS011;36250;48.740;22.174;2023-06-26T06:56:14;7.78;;;6.15;;
50350;SDS011;36250;48.740;22.174;2023-06-26T06:58:39;9.15;;;5.60;;
50350;SDS011;36250;48.740;22.174;2023-06-26T07:01:07;5.88;;;5.32;;
50350;SDS011;36250;48.740;22.174;2023-06-26T07:03:34;8.15;;;6.25;;
50350;SDS011;36250;48.740;22.174;2023-06-26T07:05:59;7.53;;;5.47;;
50350;SDS011;36250;48.740;22.174;2023-06-26T07:08:24;10.02;;;5.82;;
50350;SDS011;36250;48.740;22.174;2023-06-26T07:10:50;6.68;;;6.00;;
50350;SDS011;36250;48.740;22.174;2023-06-26T07:13:15;7.88;;;6.03;;
50350;SDS011;36250;48.740;22.174;2023-06-26T07:15:41;6.15;;;5.60;;
50350;SDS011;36250;48.740;22.174;2023-06-26T07:18:06;6.47;;;5.43;;
50350;SDS011;36250;48.740;22.174;2023-06-26T07:20:31;6.43;;;4.97;;
50350;SDS011;36250;48.740;22.174;2023-06-26T07:22:57;7.28;;;6.38;;
50350;SDS011;36250;48.740;22.174;2023-06-26T07:25:22;8.23;;;5.72;;
50350;SDS011;36250;48.740;22.174;2023-06-26T07:27:47;6.57;;;5.97;;
50350;SDS011;36250;48.740;22.174;2023-06-26T07:30:13;7.47;;;6.28;;
50350;SDS011;36250;48.740;22.174;2023-06-26T07:32:38;14.35;;;6.47;;
50350;SDS011;36250;48.740;22.174;2023-06-26T07:35:05;8.43;;;5.95;;
50350;SDS011;36250;48.740;22.174;2023-06-26T07:37:31;10.13;;;6.30;;
50350;SDS011;36250;48.740;22.174;2023-06-26T07:39:57;8.60;;;5.85;;
50350;SDS011;36250;48.740;22.174;2023-06-26T07:42:22;9.95;;;6.57;;
50350;SDS011;36250;48.740;22.174;2023-06-26T07:44:47;12.02;;;6.32;;
50350;SDS011;36250;48.740;22.174;2023-06-26T07:47:13;7.50;;;6.13;;
50350;SDS011;36250;48.740;22.174;2023-06-26T07:49:40;5.95;;;5.28;;
50350;SDS011;36250;48.740;22.174;2023-06-26T07:52:05;6.72;;;5.63;;
50350;SDS011;36250;48.740;22.174;2023-06-26T07:54:31;6.28;;;5.60;;
50350;SDS011;36250;48.740;22.174;2023-06-26T07:56:57;8.00;;;5.70;;
50350;SDS011;36250;48.740;22.174;2023-06-26T07:59:25;11.02;;;5.72;;
50350;SDS011;36250;48.740;22.174;2023-06-26T08:01:51;12.73;;;6.00;;
50350;SDS011;36250;48.740;22.174;2023-06-26T08:04:21;8.23;;;5.03;;
50350;SDS011;36250;48.740;22.174;2023-06-26T08:06:51;5.97;;;5.38;;
50350;SDS011;36250;48.740;22.174;2023-06-26T08:09:18;5.88;;;5.28;;
50350;SDS011;36250;48.740;22.174;2023-06-26T08:11:45;6.88;;;5.78;;
50350;SDS011;36250;48.740;22.174;2023-06-26T08:14:10;6.20;;;5.57;;
50350;SDS011;36250;48.740;22.174;2023-06-26T08:16:37;5.80;;;5.30;;
50350;SDS011;36250;48.740;22.174;2023-06-26T08:19:03;7.50;;;5.63;;
50350;SDS011;36250;48.740;22.174;2023-06-26T08:21:29;8.07;;;5.95;;
50350;SDS011;36250;48.740;22.174;2023-06-26T08:23:54;6.07;;;5.47;;
50350;SDS011;36250;48.740;22.174;2023-06-26T08:26:19;6.35;;;5.70;;
50350;SDS011;36250;48.740;22.174;2023-06-26T08:28:45;5.35;;;4.88;;
50350;SDS011;36250;48.740;22.174;2023-06-26T08:31:10;6.57;;;5.85;;
50350;SDS011;36250;48.740;22.174;2023-06-26T08:33:35;5.93;;;5.40;;
50350;SDS011;36250;48.740;22.174;2023-06-26T08:36:00;9.02;;;5.50;;
50350;SDS011;36250;48.740;22.174;2023-06-26T08:38:26;7.90;;;5.50;;
50350;SDS011;36250;48.740;22.174;2023-06-26T08:40:52;6.88;;;4.95;;
50350;SDS011;36250;48.740;22.174;2023-06-26T08:43:17;8.05;;;6.53;;
50350;SDS011;36250;48.740;22.174;2023-06-26T08:45:42;6.72;;;5.50;;
50350;SDS011;36250;48.740;22.174;2023-06-26T08:48:08;5.82;;;5.20;;
50350;SDS011;36250;48.740;22.174;2023-06-26T08:50:34;5.50;;;5.10;;
50350;SDS011;36250;48.740;22.174;2023-06-26T08:55:46;5.63;;;5.07;;
50350;SDS011;36250;48.740;22.174;2023-06-26T08:58:15;8.75;;;5.78;;
50350;SDS011;36250;48.740;22.174;2023-06-26T09:00:41;5.95;;;5.18;;
50350;SDS011;36250;48.740;22.174;2023-06-26T09:03:06;6.88;;;5.60;;
50350;SDS011;36250;48.740;22.174;2023-06-26T10:59:20;10.88;;;4.72;;
50350;SDS011;36250;48.740;22.174;2023-06-26T11:01:53;7.72;;;5.05;;
50350;SDS011;36250;48.740;22.174;2023-06-26T11:04:19;4.90;;;4.45;;
50350;SDS011;36250;48.740;22.174;2023-06-26T11:10:02;6.82;;;4.68;;
50350;SDS011;36250;48.740;22.174;2023-06-26T11:12:40;4.90;;;4.47;;
50350;SDS011;36250;48.740;22.174;2023-06-26T11:15:16;5.25;;;4.75;;
50350;SDS011;36250;48.740;22.174;2023-06-26T11:17:44;4.93;;;4.53;;
50350;SDS011;36250;48.740;22.174;2023-06-26T11:20:10;6.18;;;4.80;;
50350;SDS011;36250;48.740;22.174;2023-06-26T11:22:37;4.97;;;4.47;;
50350;SDS011;36250;48.740;22.174;2023-06-26T11:25:04;8.35;;;4.63;;
50350;SDS011;36250;48.740;22.174;2023-06-26T11:27:40;5.25;;;4.80;;
50350;SDS011;36250;48.740;22.174;2023-06-26T11:30:10;5.75;;;4.45;;
50350;SDS011;36250;48.740;22.174;2023-06-26T11:32:47;6.13;;;4.57;;
50350;SDS011;36250;48.740;22.174;2023-06-26T11:35:12;6.40;;;4.05;;
50350;SDS011;36250;48.740;22.174;2023-06-26T11:37:37;4.70;;;4.28;;
50350;SDS011;36250;48.740;22.174;2023-06-26T11:40:18;11.45;;;4.72;;
50350;SDS011;36250;48.740;22.174;2023-06-26T11:42:44;4.82;;;4.32;;
50350;SDS011;36250;48.740;22.174;2023-06-26T11:45:10;5.63;;;5.15;;
50350;SDS011;36250;48.740;22.174;2023-06-26T11:47:35;6.22;;;4.45;;
50350;SDS011;36250;48.740;22.174;2023-06-26T11:50:04;5.68;;;4.45;;
50350;SDS011;36250;48.740;22.174;2023-06-26T11:52:30;5.15;;;4.75;;
50350;SDS011;36250;48.740;22.174;2023-06-26T11:54:57;6.00;;;4.50;;
50350;SDS011;36250;48.740;22.174;2023-06-26T11:57:23;4.90;;;4.40;;
50350;SDS011;36250;48.740;22.174;2023-06-26T11:59:49;4.32;;;3.92;;
50350;SDS011;36250;48.740;22.174;2023-06-26T12:02:16;9.23;;;4.60;;
50350;SDS011;36250;48.740;22.174;2023-06-26T12:04:42;6.65;;;4.65;;
50350;SDS011;36250;48.740;22.174;2023-06-26T12:07:09;5.43;;;4.88;;
50350;SDS011;36250;48.740;22.174;2023-06-26T12:09:39;10.57;;;4.22;;
50350;SDS011;36250;48.740;22.174;2023-06-26T12:12:06;4.50;;;4.10;;
50350;SDS011;36250;48.740;22.174;2023-06-26T12:14:32;5.47;;;4.60;;
50350;SDS011;36250;48.740;22.174;2023-06-26T12:17:07;4.93;;;4.50;;
50350;SDS011;36250;48.740;22.174;2023-06-26T12:19:38;9.43;;;5.30;;
50350;SDS011;36250;48.740;22.174;2023-06-26T12:22:08;5.10;;;4.60;;
50350;SDS011;36250;48.740;22.174;2023-06-26T12:24:35;5.97;;;4.38;;
50350;SDS011;36250;48.740;22.174;2023-06-26T12:27:02;5.95;;;4.78;;
50350;SDS011;36250;48.740;22.174;2023-06-26T12:29:32;4.53;;;4.13;;
50350;SDS011;36250;48.740;22.174;2023-06-26T12:31:58;4.88;;;4.40;;
50350;SDS011;36250;48.740;22.174;2023-06-26T12:34:26;6.93;;;4.30;;
50350;SDS011;36250;48.740;22.174;2023-06-26T12:36:59;4.97;;;4.07;;
50350;SDS011;36250;48.740;22.174;2023-06-26T12:39:28;4.72;;;4.18;;
50350;SDS011;36250;48.740;22.174;2023-06-26T12:41:55;5.10;;;4.50;;
50350;SDS011;36250;48.740;22.174;2023-06-26T12:46:50;6.28;;;3.85;;
50350;SDS011;36250;48.740;22.174;2023-06-26T12:49:33;7.38;;;4.47;;
50350;SDS011;36250;48.740;22.174;2023-06-26T12:52:00;8.75;;;5.28;;
50350;SDS011;36250;48.740;22.174;2023-06-26T12:54:28;6.78;;;4.57;;
50350;SDS011;36250;48.740;22.174;2023-06-26T12:56:54;12.85;;;7.18;;
50350;SDS011;36250;48.740;22.174;2023-06-26T12:59:20;6.30;;;4.15;;
50350;SDS011;36250;48.740;22.174;2023-06-26T13:01:46;4.82;;;4.20;;
50350;SDS011;36250;48.740;22.174;2023-06-26T13:04:11;4.75;;;4.30;;
50350;SDS011;36250;48.740;22.174;2023-06-26T13:06:37;4.38;;;3.97;;
50350;SDS011;36250;48.740;22.174;2023-06-26T13:09:02;4.72;;;4.25;;
50350;SDS011;36250;48.740;22.174;2023-06-26T13:11:31;5.90;;;4.30;;
50350;SDS011;36250;48.740;22.174;2023-06-26T13:13:56;4.60;;;4.20;;
50350;SDS011;36250;48.740;22.174;2023-06-26T13:16:22;7.03;;;4.32;;
50350;SDS011;36250;48.740;22.174;2023-06-26T13:18:47;4.50;;;4.05;;
50350;SDS011;36250;48.740;22.174;2023-06-26T13:21:13;4.28;;;3.72;;
50350;SDS011;36250;48.740;22.174;2023-06-26T13:23:39;4.70;;;4.30;;
50350;SDS011;36250;48.740;22.174;2023-06-26T13:26:05;6.47;;;4.20;;
50350;SDS011;36250;48.740;22.174;2023-06-26T13:28:31;8.50;;;4.10;;
50350;SDS011;36250;48.740;22.174;2023-06-26T13:30:56;5.63;;;4.78;;
50350;SDS011;36250;48.740;22.174;2023-06-26T13:33:21;5.97;;;4.10;;
50350;SDS011;36250;48.740;22.174;2023-06-26T13:35:50;4.80;;;4.40;;
50350;SDS011;36250;48.740;22.174;2023-06-26T13:38:16;5.25;;;4.47;;
50350;SDS011;36250;48.740;22.174;2023-06-26T13:40:42;5.30;;;4.43;;
50350;SDS011;36250;48.740;22.174;2023-06-26T13:43:08;6.68;;;4.30;;
50350;SDS011;36250;48.740;22.174;2023-06-26T13:45:33;14.55;;;4.65;;
50350;SDS011;36250;48.740;22.174;2023-06-26T13:47:58;4.18;;;3.88;;
50350;SDS011;36250;48.740;22.174;2023-06-26T13:50:24;6.63;;;4.13;;
50350;SDS011;36250;48.740;22.174;2023-06-26T13:52:49;4.85;;;4.35;;
50350;SDS011;36250;48.740;22.174;2023-06-26T13:55:14;8.43;;;4.75;;
50350;SDS011;36250;48.740;22.174;2023-06-26T13:57:40;4.65;;;4.20;;
50350;SDS011;36250;48.740;22.174;2023-06-26T14:00:07;4.60;;;4.18;;
50350;SDS011;36250;48.740;22.174;2023-06-26T14:02:33;5.45;;;4.72;;
50350;SDS011;36250;48.740;22.174;2023-06-26T14:04:59;4.50;;;4.10;;
50350;SDS011;36250;48.740;22.174;2023-06-26T14:07:24;5.32;;;4.45;;
50350;SDS011;36250;48.740;22.174;2023-06-26T14:09:50;6.55;;;4.57;;
50350;SDS011;36250;48.740;22.174;2023-06-26T14:12:15;10.55;;;5.47;;
50350;SDS011;36250;48.740;22.174;2023-06-26T14:14:40;6.65;;;4.85;;
50350;SDS011;36250;48.740;22.174;2023-06-26T14:17:07;4.32;;;3.97;;
50350;SDS011;36250;48.740;22.174;2023-06-26T14:19:34;7.63;;;4.13;;
50350;SDS011;36250;48.740;22.174;2023-06-26T14:21:59;6.90;;;4.35;;
50350;SDS011;36250;48.740;22.174;2023-06-26T14:24:26;8.65;;;4.68;;
50350;SDS011;36250;48.740;22.174;2023-06-26T14:26:51;5.00;;;4.50;;
50350;SDS011;36250;48.740;22.174;2023-06-26T14:29:17;4.72;;;4.32;;
50350;SDS011;36250;48.740;22.174;2023-06-26T14:31:43;6.50;;;4.85;;
50350;SDS011;36250;48.740;22.174;2023-06-26T14:34:08;9.68;;;4.53;;
50350;SDS011;36250;48.740;22.174;2023-06-26T14:36:34;5.90;;;4.35;;
50350;SDS011;36250;48.740;22.174;2023-06-26T14:39:00;4.88;;;4.47;;
50350;SDS011;36250;48.740;22.174;2023-06-26T14:41:25;4.75;;;4.10;;
50350;SDS011;36250;48.740;22.174;2023-06-26T14:43:51;6.07;;;4.60;;
50350;SDS011;36250;48.740;22.174;2023-06-26T14:46:17;7.75;;;4.03;;
50350;SDS011;36250;48.740;22.174;2023-06-26T14:48:43;5.68;;;3.85;;
50350;SDS011;36250;48.740;22.174;2023-06-26T14:51:08;8.75;;;4.45;;
50350;SDS011;36250;48.740;22.174;2023-06-26T14:53:33;10.50;;;5.40;;
50350;SDS011;36250;48.740;22.174;2023-06-26T14:55:59;10.15;;;3.75;;
50350;SDS011;36250;48.740;22.174;2023-06-26T14:58:24;6.15;;;3.95;;
50350;SDS011;36250;48.740;22.174;2023-06-26T15:00:50;4.70;;;3.90;;
50350;SDS011;36250;48.740;22.174;2023-06-26T15:03:15;4.72;;;4.32;;
50350;SDS011;36250;48.740;22.174;2023-06-26T15:05:40;7.57;;;4.32;;
50350;SDS011;36250;48.740;22.174;2023-06-26T15:08:06;9.25;;;4.43;;
50350;SDS011;36250;48.740;22.174;2023-06-26T15:10:31;4.55;;;4.15;;
50350;SDS011;36250;48.740;22.174;2023-06-26T15:12:56;6.03;;;4.50;;
50350;SDS011;36250;48.740;22.174;2023-06-26T15:15:22;6.93;;;3.95;;
50350;SDS011;36250;48.740;22.174;2023-06-26T15:17:47;4.65;;;4.18;;
50350;SDS011;36250;48.740;22.174;2023-06-26T15:20:13;5.75;;;4.70;;
50350;SDS011;36250;48.740;22.174;2023-06-26T15:22:38;9.60;;;4.93;;
50350;SDS011;36250;48.740;22.174;2023-06-26T15:25:04;6.32;;;3.80;;
50350;SDS011;36250;48.740;22.174;2023-06-26T15:27:30;7.20;;;4.60;;
50350;SDS011;36250;48.740;22.174;2023-06-26T15:29:55;4.40;;;4.00;;
50350;SDS011;36250;48.740;22.174;2023-06-26T15:32:20;5.15;;;4.28;;
50350;SDS011;36250;48.740;22.174;2023-06-26T15:34:46;4.60;;;4.20;;
50350;SDS011;36250;48.740;22.174;2023-06-26T15:37:12;6.10;;;4.85;;
50350;SDS011;36250;48.740;22.174;2023-06-26T15:39:37;4.65;;;4.15;;
50350;SDS011;36250;48.740;22.174;2023-06-26T15:42:03;4.78;;;4.28;;
50350;SDS011;36250;48.740;22.174;2023-06-26T15:44:28;4.82;;;4.35;;
50350;SDS011;36250;48.740;22.174;2023-06-26T15:46:54;5.60;;;4.22;;
50350;SDS011;36250;48.740;22.174;2023-06-26T15:49:19;11.55;;;4.30;;
50350;SDS011;36250;48.740;22.174;2023-06-26T15:51:45;10.52;;;4.20;;
50350;SDS011;36250;48.740;22.174;2023-06-26T15:54:12;4.97;;;4.47;;
50350;SDS011;36250;48.740;22.174;2023-06-26T15:56:38;5.07;;;4.68;;
50350;SDS011;36250;48.740;22.174;2023-06-26T15:59:04;5.03;;;4.57;;
50350;SDS011;36250;48.740;22.174;2023-06-26T16:01:29;10.45;;;4.55;;
50350;SDS011;36250;48.740;22.174;2023-06-26T16:03:55;4.70;;;4.30;;
50350;SDS011;36250;48.740;22.174;2023-06-26T16:06:20;4.83;;;4.33;;
50350;SDS011;36250;48.740;22.174;2023-06-26T16:08:46;10.10;;;4.53;;
50350;SDS011;36250;48.740;22.174;2023-06-26T16:11:13;4.82;;;4.43;;
50350;SDS011;36250;48.740;22.174;2023-06-26T16:13:39;4.40;;;4.00;;
50350;SDS011;36250;48.740;22.174;2023-06-26T16:16:04;4.90;;;4.50;;
50350;SDS011;36250;48.740;22.174;2023-06-26T16:18:30;7.68;;;4.85;;
50350;SDS011;36250;48.740;22.174;2023-06-26T16:20:55;5.00;;;4.60;;
50350;SDS011;36250;48.740;22.174;2023-06-26T16:23:21;5.22;;;4.70;;
50350;SDS011;36250;48.740;22.174;2023-06-26T16:25:48;5.72;;;5.15;;
50350;SDS011;36250;48.740;22.174;2023-06-26T16:28:13;5.10;;;4.65;;
50350;SDS011;36250;48.740;22.174;2023-06-26T16:30:39;5.60;;;4.72;;
50350;SDS011;36250;48.740;22.174;2023-06-26T16:33:05;5.25;;;4.10;;
50350;SDS011;36250;48.740;22.174;2023-06-26T16:35:31;6.00;;;4.50;;
50350;SDS011;36250;48.740;22.174;2023-06-26T16:37:59;8.38;;;4.72;;